createdAt,value
2018-08-22T00:00:48.592Z,26.20
2018-08-22T00:06:09.174Z,26.20
2018-08-22T00:11:29.703Z,26.10
2018-08-22T00:16:50.404Z,26.10
2018-08-22T00:22:10.934Z,26.10
2018-08-22T00:27:31.562Z,26.10
2018-08-22T00:32:52.161Z,26.10
2018-08-22T00:38:12.932Z,26.10
2018-08-22T00:43:33.447Z,26.10
2018-08-22T00:48:53.953Z,26.10
2018-08-22T00:54:14.584Z,26.00
2018-08-22T00:59:35.102Z,26.00
2018-08-22T01:04:55.689Z,26.00
2018-08-22T01:10:16.203Z,26.00
2018-08-22T01:15:36.726Z,25.90
2018-08-22T01:20:57.410Z,25.90
2018-08-22T01:26:17.933Z,25.90
2018-08-22T01:31:38.570Z,25.90
2018-08-22T01:36:59.225Z,25.90
2018-08-22T01:42:19.931Z,25.90
2018-08-22T01:47:40.456Z,25.80
2018-08-22T01:53:00.969Z,25.80
2018-08-22T01:58:21.506Z,25.80
2018-08-22T02:03:42.086Z,25.80
2018-08-22T02:09:02.613Z,25.80
2018-08-22T02:14:23.166Z,25.80
2018-08-22T02:19:43.705Z,25.70
2018-08-22T02:25:04.653Z,25.70
2018-08-22T02:30:25.200Z,25.60
2018-08-22T02:35:45.745Z,25.60
2018-08-22T02:41:06.539Z,25.60
2018-08-22T02:46:27.142Z,25.60
2018-08-22T02:51:47.900Z,25.60
2018-08-22T02:57:08.450Z,25.60
2018-08-22T03:02:29.031Z,25.60
2018-08-22T03:07:49.546Z,25.50
2018-08-22T03:13:10.148Z,25.50
2018-08-22T03:18:30.854Z,25.50
2018-08-22T03:23:51.655Z,25.50
2018-08-22T03:29:12.529Z,25.50
2018-08-22T03:34:33.611Z,25.50
2018-08-22T03:39:54.214Z,25.40
2018-08-22T03:45:14.767Z,25.40
2018-08-22T03:50:35.300Z,25.40
2018-08-22T03:55:55.829Z,25.40
2018-08-22T04:01:16.481Z,25.40
2018-08-22T04:06:37.022Z,25.40
2018-08-22T04:11:57.579Z,25.30
2018-08-22T04:17:18.188Z,25.30
2018-08-22T04:22:39.933Z,25.30
2018-08-22T04:28:00.582Z,25.30
2018-08-22T04:33:21.179Z,25.30
2018-08-22T04:38:41.791Z,25.30
2018-08-22T04:44:02.389Z,25.30
2018-08-22T04:49:23.114Z,25.30
2018-08-22T04:54:43.855Z,25.20
2018-08-22T05:00:04.537Z,25.20
2018-08-22T05:05:25.091Z,25.20
2018-08-22T05:10:45.855Z,25.20
2018-08-22T05:16:06.460Z,25.20
2018-08-22T05:21:27.003Z,25.20
2018-08-22T05:26:47.630Z,25.20
2018-08-22T05:32:08.213Z,25.10
2018-08-22T05:37:28.814Z,25.10
2018-08-22T05:42:49.335Z,25.10
2018-08-22T05:48:09.884Z,25.10
2018-08-22T05:53:30.427Z,25.10
2018-08-22T05:58:51.320Z,25.10
2018-08-22T06:04:12.047Z,25.10
2018-08-22T06:09:32.577Z,25.10
2018-08-22T06:14:53.435Z,25.00
2018-08-22T06:20:13.977Z,25.10
2018-08-22T06:25:35.089Z,25.00
2018-08-22T06:30:56.259Z,25.00
2018-08-22T06:36:17.315Z,25.10
2018-08-22T06:41:38.305Z,25.00
2018-08-22T06:46:58.847Z,25.00
2018-08-22T06:52:19.407Z,25.00
2018-08-22T06:57:39.931Z,25.00
2018-08-22T07:03:00.469Z,25.10
2018-08-22T07:08:21.420Z,25.10
2018-08-22T07:13:42.464Z,25.10
2018-08-22T07:19:03.367Z,25.10
2018-08-22T07:24:25.553Z,25.20
2018-08-22T07:29:46.884Z,25.20
2018-08-22T07:35:08.134Z,25.50
2018-08-22T07:40:28.656Z,25.70
2018-08-22T07:45:49.236Z,25.70
2018-08-22T07:51:09.863Z,25.80
2018-08-22T07:56:30.647Z,25.70
2018-08-22T08:01:51.254Z,25.70
2018-08-22T08:07:13.404Z,25.70
2018-08-22T08:12:41.619Z,25.80
2018-08-22T08:18:02.320Z,25.80
2018-08-22T08:23:26.162Z,25.80
2018-08-22T08:28:46.883Z,25.90
2018-08-22T08:34:07.598Z,26.00
2018-08-22T08:39:28.143Z,26.00
2018-08-22T08:44:48.866Z,25.90
2018-08-22T08:50:09.596Z,25.70
2018-08-22T08:55:30.936Z,25.50
2018-08-22T09:00:52.605Z,25.30
2018-08-22T09:06:13.665Z,25.20
2018-08-22T09:11:34.602Z,25.10
2018-08-22T09:16:55.680Z,25.10
2018-08-22T09:22:17.253Z,25.20
2018-08-22T09:27:37.823Z,25.20
2018-08-22T09:32:58.354Z,25.20
2018-08-22T09:38:19.144Z,25.20
2018-08-22T09:43:39.967Z,25.20
2018-08-22T09:49:00.589Z,25.20
2018-08-22T09:54:25.928Z,25.30
2018-08-22T09:59:51.032Z,25.40
2018-08-22T10:05:13.336Z,25.40
2018-08-22T10:10:35.831Z,25.30
2018-08-22T10:15:56.473Z,25.30
2018-08-22T10:21:19.074Z,25.30
2018-08-22T10:26:40.234Z,25.30
2018-08-22T10:32:01.023Z,25.30
2018-08-22T10:37:21.732Z,25.30
2018-08-22T10:42:42.348Z,25.30
2018-08-22T10:48:04.298Z,25.30
2018-08-22T10:53:25.644Z,25.30
2018-08-22T10:58:46.150Z,25.30
2018-08-22T11:04:06.733Z,25.20
2018-08-22T11:09:27.261Z,25.20
2018-08-22T11:14:47.877Z,25.30
2018-08-22T11:20:08.546Z,25.30
2018-08-22T11:25:39.902Z,25.50
2018-08-22T11:31:10.807Z,25.60
2018-08-22T11:36:29.830Z,25.70
2018-08-22T11:41:50.358Z,25.70
2018-08-22T11:47:11.002Z,25.80
2018-08-22T11:52:31.518Z,25.90
2018-08-22T11:57:52.051Z,25.90
2018-08-22T12:03:12.591Z,26.00
2018-08-22T12:08:33.643Z,26.20
2018-08-22T12:13:54.340Z,26.20
2018-08-22T12:19:14.883Z,26.30
2018-08-22T12:24:35.439Z,26.30
2018-08-22T12:29:56.398Z,26.30
2018-08-22T12:35:17.398Z,26.40
2018-08-22T12:40:37.950Z,26.50
2018-08-22T12:45:58.726Z,26.50
2018-08-22T12:51:20.440Z,26.60
2018-08-22T12:56:41.693Z,26.70
2018-08-22T13:02:02.389Z,26.80
2018-08-22T13:07:24.571Z,26.80
2018-08-22T13:12:46.068Z,26.90
2018-08-22T13:18:06.887Z,27.00
2018-08-22T13:23:27.433Z,27.10
2018-08-22T13:28:47.952Z,27.20
2018-08-22T13:34:08.676Z,27.30
2018-08-22T13:39:29.410Z,27.40
2018-08-22T13:44:49.946Z,27.50
2018-08-22T13:50:10.546Z,27.60
2018-08-22T13:55:31.166Z,27.60
2018-08-22T14:00:52.834Z,27.70
2018-08-22T14:06:13.502Z,27.80
2018-08-22T14:11:34.043Z,27.80
2018-08-22T14:16:54.703Z,27.80
2018-08-22T14:22:15.319Z,27.90
2018-08-22T14:27:36.374Z,27.90
2018-08-22T14:32:57.023Z,27.90
2018-08-22T14:38:17.607Z,27.90
2018-08-22T14:43:38.526Z,28.00
2018-08-22T14:48:59.396Z,28.00
2018-08-22T14:54:20.179Z,28.00
2018-08-22T14:59:40.922Z,28.00
2018-08-22T15:05:02.467Z,28.00
2018-08-22T15:10:23.074Z,28.00
2018-08-22T15:15:44.054Z,28.00
2018-08-22T15:21:04.670Z,28.00
2018-08-22T15:26:25.898Z,28.00
2018-08-22T15:31:46.730Z,27.90
2018-08-22T15:37:07.394Z,27.80
2018-08-22T15:42:28.010Z,27.80
2018-08-22T15:47:48.564Z,27.70
2018-08-22T15:53:09.371Z,27.70
2018-08-22T15:58:30.235Z,27.60
2018-08-22T16:03:51.349Z,27.60
2018-08-22T16:09:21.301Z,27.60
2018-08-22T16:14:42.076Z,27.50
2018-08-22T16:20:02.763Z,27.50
2018-08-22T16:25:31.013Z,27.50
2018-08-22T16:30:57.578Z,27.40
2018-08-22T16:36:20.660Z,27.40
2018-08-22T16:41:41.552Z,27.40
2018-08-22T16:47:03.597Z,27.30
2018-08-22T16:52:24.488Z,27.30
2018-08-22T16:57:45.340Z,27.20
2018-08-22T17:03:08.017Z,27.10
2018-08-22T17:08:29.219Z,27.10
2018-08-22T17:13:53.766Z,27.10
2018-08-22T17:19:14.363Z,27.10
2018-08-22T17:24:34.938Z,27.10
2018-08-22T17:29:55.501Z,27.00
2018-08-22T17:35:16.126Z,27.00
2018-08-22T17:40:36.880Z,27.00
2018-08-22T17:45:57.452Z,26.90
2018-08-22T17:51:18.027Z,26.70
2018-08-22T17:56:38.909Z,26.60
2018-08-22T18:02:00.482Z,26.50
2018-08-22T18:07:21.269Z,26.40
2018-08-22T18:12:41.805Z,26.30
2018-08-22T18:18:02.831Z,26.40
2018-08-22T18:23:23.715Z,26.50
2018-08-22T18:28:44.347Z,26.60
2018-08-22T18:34:05.212Z,26.60
2018-08-22T18:39:26.075Z,26.70
2018-08-22T18:44:46.956Z,26.80
2018-08-22T18:50:07.749Z,26.80
2018-08-22T18:55:31.441Z,26.80
2018-08-22T19:00:52.109Z,26.80
2018-08-22T19:06:14.065Z,26.80
2018-08-22T19:11:35.009Z,26.90
2018-08-22T19:16:55.760Z,26.90
2018-08-22T19:22:18.814Z,26.90
2018-08-22T19:27:39.358Z,26.90
2018-08-22T19:32:59.993Z,26.90
2018-08-22T19:38:23.482Z,26.90
2018-08-22T19:43:44.258Z,26.90
2018-08-22T19:49:04.961Z,26.90
2018-08-22T19:54:25.520Z,27.00
2018-08-22T19:59:46.274Z,27.00
2018-08-22T20:05:07.947Z,26.90
2018-08-22T20:10:29.010Z,26.90
2018-08-22T20:15:49.539Z,26.90
2018-08-22T20:21:13.590Z,26.90
2018-08-22T20:26:34.550Z,26.90
2018-08-22T20:31:57.169Z,26.90
2018-08-22T20:37:17.977Z,26.90
2018-08-22T20:42:38.675Z,26.90
2018-08-22T20:48:04.332Z,26.90
2018-08-22T20:53:24.963Z,26.90
2018-08-22T20:58:45.710Z,26.80
2018-08-22T21:04:06.327Z,26.80
2018-08-22T21:09:26.959Z,26.80
2018-08-22T21:14:47.670Z,26.80
2018-08-22T21:20:14.368Z,26.80
2018-08-22T21:25:35.011Z,26.80
2018-08-22T21:30:59.389Z,26.80
2018-08-22T21:36:20.143Z,26.80
2018-08-22T21:41:41.352Z,26.80
2018-08-22T21:47:06.665Z,26.80
2018-08-22T21:52:28.887Z,26.80
2018-08-22T21:57:49.623Z,26.70
2018-08-22T22:03:11.345Z,26.70
2018-08-22T22:08:32.011Z,26.70
2018-08-22T22:13:54.632Z,26.70
2018-08-22T22:19:15.541Z,26.70
2018-08-22T22:24:44.790Z,26.70
2018-08-22T22:30:07.017Z,26.60
2018-08-22T22:35:32.714Z,26.60
2018-08-22T22:40:53.283Z,26.60
2018-08-22T22:46:13.937Z,26.60
2018-08-22T22:51:34.672Z,26.60
2018-08-22T22:56:55.715Z,26.60
2018-08-22T23:02:16.281Z,26.60
2018-08-22T23:07:37.867Z,26.60
2018-08-22T23:12:58.464Z,26.50
2018-08-22T23:18:19.589Z,26.50
2018-08-22T23:23:40.292Z,26.60
2018-08-22T23:29:00.857Z,26.50
2018-08-22T23:34:21.445Z,26.50
2018-08-22T23:39:42.271Z,26.50
2018-08-22T23:45:04.698Z,26.50
2018-08-22T23:50:29.084Z,26.50
2018-08-22T23:55:50.141Z,26.50
